Time;durP1;ratioP1;P1;durP2;ratioP2;P2;SDS_P1;SDS_P2;PMS_P1;PMS_P2;Temp;Humidity;BMP_temperature;BMP_pressure;BME280_temperature;BME280_humidity;BME280_pressure;Samples;Min_cycle;Max_cycle;Signal;HPM_P1;HPM_P2
2023/12/23 00:01:37;;;;;;;0.33;0.33;;;7.50;99.90;;;;;;5066158;28;20229;-77
2023/12/23 00:04:03;;;;;;;0.20;0.20;;;7.60;99.90;;;;;;5088318;28;20207;-78
2023/12/23 00:06:28;;;;;;;0.40;0.40;;;7.70;99.90;;;;;;5088863;28;20185;-78
2023/12/23 00:08:54;;;;;;;0.30;0.30;;;7.70;99.90;;;;;;5094839;28;20190;-78
2023/12/23 00:11:20;;;;;;;0.30;0.30;;;7.80;99.90;;;;;;5084100;28;20179;-79
2023/12/23 00:13:45;;;;;;;0.30;0.30;;;7.80;99.90;;;;;;5074346;28;20276;-77
2023/12/23 00:16:11;;;;;;;0.17;0.17;;;7.90;99.90;;;;;;5076744;28;20183;-77
2023/12/23 00:18:37;;;;;;;0.30;0.30;;;8.00;99.90;;;;;;5092225;28;20175;-79
2023/12/23 00:21:03;;;;;;;0.20;0.20;;;7.50;99.90;;;;;;5080202;28;20175;-78
2023/12/23 00:23:29;;;;;;;0.20;0.20;;;8.20;99.90;;;;;;5074760;28;20258;-80
2023/12/23 00:25:55;;;;;;;0.60;0.60;;;8.30;99.90;;;;;;5074967;28;20722;-79
2023/12/23 00:28:22;;;;;;;0.27;0.27;;;8.20;99.90;;;;;;5075276;28;20673;-80
2023/12/23 00:30:47;;;;;;;0.17;0.17;;;8.20;99.90;;;;;;5074999;28;20181;-80
2023/12/23 00:33:14;;;;;;;0.20;0.20;;;8.20;99.90;;;;;;5075246;28;20178;-78
2023/12/23 00:35:41;;;;;;;0.30;0.30;;;8.20;99.90;;;;;;5076625;28;20171;-78
2023/12/23 00:38:07;;;;;;;0.27;0.27;;;8.20;99.90;;;;;;5074836;28;20396;-78
2023/12/23 00:40:33;;;;;;;0.20;0.20;;;8.20;99.90;;;;;;5082243;28;20585;-80
2023/12/23 00:42:58;;;;;;;0.23;0.23;;;8.20;99.90;;;;;;5079163;28;20238;-78
2023/12/23 00:45:24;;;;;;;0.17;0.17;;;8.20;99.90;;;;;;5074991;28;20164;-78
2023/12/23 00:47:50;;;;;;;0.20;0.20;;;8.30;99.90;;;;;;5075543;28;20673;-79
2023/12/23 00:50:15;;;;;;;0.27;0.27;;;8.30;99.90;;;;;;5074081;28;20173;-79
2023/12/23 00:52:41;;;;;;;0.23;0.23;;;8.40;99.90;;;;;;5073811;28;20180;-78
2023/12/23 00:55:07;;;;;;;0.20;0.20;;;8.50;99.90;;;;;;5073691;28;20522;-78
2023/12/23 00:57:33;;;;;;;0.30;0.30;;;8.50;99.90;;;;;;5076865;28;20179;-78
2023/12/23 00:59:59;;;;;;;0.10;0.10;;;8.50;99.90;;;;;;5082690;28;20275;-78
2023/12/23 01:02:25;;;;;;;0.27;0.20;;;8.60;99.90;;;;;;5057573;28;20186;-79
2023/12/23 01:04:51;;;;;;;0.20;0.20;;;8.50;99.90;;;;;;5055659;28;20182;-76
2023/12/23 01:07:18;;;;;;;0.10;0.10;;;;;;;;;;5055184;28;20663;-77
2023/12/23 01:09:43;;;;;;;0.17;0.17;;;8.70;99.90;;;;;;5053761;28;20409;-76
2023/12/23 01:12:09;;;;;;;0.20;0.20;;;;;;;;;;5035823;28;20267;-79
2023/12/23 01:14:36;;;;;;;0.30;0.30;;;;;;;;;;5053414;28;20179;-78
2023/12/23 01:17:08;;;;;;;1.00;0.27;;;;;;;;;;5036877;28;20179;-74
2023/12/23 01:19:37;;;;;;;0.20;0.20;;;;;;;;;;5053455;28;20186;-77
2023/12/23 01:22:05;;;;;;;0.30;0.30;;;;;;;;;;5035612;28;20899;-78
2023/12/23 01:24:32;;;;;;;0.20;0.20;;;;;;;;;;5053805;28;20261;-76
2023/12/23 01:27:00;;;;;;;0.10;0.10;;;;;;;;;;5053324;28;20227;-78
2023/12/23 01:29:26;;;;;;;0.20;0.20;;;;;;;;;;5053212;28;20482;-79
2023/12/23 01:31:52;;;;;;;0.10;0.10;;;8.70;99.90;;;;;;5052768;28;20175;-77
2023/12/23 01:34:18;;;;;;;0.20;0.20;;;8.30;99.90;;;;;;5040120;28;20634;-76
2023/12/23 01:36:44;;;;;;;0.10;0.10;;;8.60;99.90;;;;;;5053029;28;20175;-77
2023/12/23 01:39:10;;;;;;;0.13;0.13;;;8.60;99.90;;;;;;5057142;28;20186;-78
2023/12/23 01:41:35;;;;;;;2.83;0.30;;;8.50;99.90;;;;;;5036492;28;20212;-77
2023/12/23 01:44:01;;;;;;;0.30;0.30;;;8.50;99.90;;;;;;5053100;28;20221;-78
2023/12/23 01:46:28;;;;;;;0.20;0.20;;;8.40;99.90;;;;;;5035460;28;20181;-77
2023/12/23 01:48:55;;;;;;;0.23;0.23;;;8.50;99.90;;;;;;5053551;28;20334;-76
2023/12/23 01:51:22;;;;;;;0.30;0.30;;;8.60;99.90;;;;;;5035491;28;20183;-76
2023/12/23 01:53:49;;;;;;;0.27;0.27;;;8.60;99.90;;;;;;5055046;28;20776;-77
2023/12/23 01:56:15;;;;;;;0.30;0.30;;;;;;;;;;5053217;28;20546;-76
2023/12/23 01:58:43;;;;;;;0.20;0.20;;;8.30;99.90;;;;;;5052505;28;20631;-77
2023/12/23 02:01:09;;;;;;;0.10;0.10;;;8.40;99.90;;;;;;5054077;28;20313;-77
2023/12/23 02:03:34;;;;;;;0.20;0.20;;;8.40;99.90;;;;;;5078295;28;20207;-79
2023/12/23 02:06:00;;;;;;;0.20;0.20;;;8.50;99.90;;;;;;5075054;28;20621;-79
2023/12/23 02:08:26;;;;;;;0.10;0.10;;;8.40;99.90;;;;;;5072785;28;20253;-78
2023/12/23 02:11:00;;;;;;;0.20;0.20;;;;;;;;;;5073085;28;20171;-77
2023/12/23 02:13:30;;;;;;;0.13;0.13;;;;;;;;;;5073091;28;20164;-78
2023/12/23 02:15:58;;;;;;;0.20;0.20;;;;;;;;;;5072906;28;20192;-77
2023/12/23 02:18:25;;;;;;;0.20;0.20;;;;;;;;;;5080400;28;20231;-79
2023/12/23 02:20:52;;;;;;;0.20;0.20;;;;;;;;;;5088292;28;20530;-79
2023/12/23 02:23:20;;;;;;;0.20;0.20;;;;;;;;;;5076204;28;20269;-77
2023/12/23 02:25:51;;;;;;;0.20;0.20;;;;;;;;;;5081493;28;20181;-76
2023/12/23 02:28:19;;;;;;;0.20;0.20;;;;;;;;;;5087526;28;20234;-77
2023/12/23 02:30:46;;;;;;;0.30;0.30;;;8.20;99.90;;;;;;5092177;28;20248;-77
2023/12/23 02:33:12;;;;;;;0.20;0.20;;;8.10;99.90;;;;;;5095798;28;20185;-78
2023/12/23 02:35:38;;;;;;;0.20;0.20;;;8.30;99.90;;;;;;5086839;28;20176;-81
2023/12/23 02:38:04;;;;;;;0.20;0.20;;;8.10;99.90;;;;;;5081846;28;20182;-79
2023/12/23 02:40:30;;;;;;;0.20;0.20;;;8.10;99.90;;;;;;5080604;28;20248;-76
2023/12/23 02:42:55;;;;;;;0.20;0.20;;;8.00;99.90;;;;;;5078623;28;20175;-80
2023/12/23 02:45:21;;;;;;;0.23;0.23;;;8.10;99.90;;;;;;5077171;28;20182;-79
2023/12/23 02:47:48;;;;;;;0.30;0.30;;;8.10;99.90;;;;;;5076089;28;20205;-79
2023/12/23 02:50:14;;;;;;;0.30;0.30;;;8.00;99.90;;;;;;5077114;28;20171;-79
2023/12/23 02:52:40;;;;;;;0.13;0.13;;;8.10;99.90;;;;;;5076376;28;20584;-79
2023/12/23 02:55:06;;;;;;;1.43;0.30;;;8.00;99.90;;;;;;5076723;28;20688;-78
2023/12/23 02:57:32;;;;;;;0.20;0.20;;;7.40;99.90;;;;;;5074201;28;20588;-79
2023/12/23 02:59:57;;;;;;;1.77;0.20;;;8.10;99.90;;;;;;5077996;28;20171;-75
2023/12/23 03:02:23;;;;;;;0.20;0.20;;;8.00;99.90;;;;;;5096671;28;20166;-79
2023/12/23 03:04:49;;;;;;;0.20;0.20;;;8.00;99.90;;;;;;5096179;28;20191;-77
2023/12/23 03:07:15;;;;;;;0.50;0.30;;;8.10;99.90;;;;;;5096948;28;20285;-77
2023/12/23 03:09:41;;;;;;;0.20;0.20;;;8.00;99.90;;;;;;5096631;28;20167;-78
2023/12/23 03:12:08;;;;;;;0.20;0.20;;;7.90;99.90;;;;;;5078231;28;20182;-77
2023/12/23 03:14:34;;;;;;;0.30;0.30;;;8.00;99.90;;;;;;5096220;28;20287;-77
2023/12/23 03:16:59;;;;;;;0.30;0.30;;;8.00;99.90;;;;;;5095806;28;20174;-74
2023/12/23 03:19:25;;;;;;;0.20;0.20;;;8.00;99.90;;;;;;5095851;28;20503;-78
2023/12/23 03:21:51;;;;;;;0.20;0.20;;;8.00;99.90;;;;;;5107171;28;20178;-75
2023/12/23 03:24:16;;;;;;;0.50;0.20;;;8.00;99.90;;;;;;5111830;28;20182;-78
2023/12/23 03:26:43;;;;;;;0.10;0.10;;;8.00;99.90;;;;;;5099467;28;20220;-80
2023/12/23 03:29:08;;;;;;;0.13;0.13;;;7.90;99.90;;;;;;5098146;28;20212;-80
2023/12/23 03:31:34;;;;;;;0.83;0.30;;;8.00;99.90;;;;;;5079011;28;20176;-80
2023/12/23 03:34:02;;;;;;;0.33;0.33;;;8.00;99.90;;;;;;5097140;28;20645;-78
2023/12/23 03:36:28;;;;;;;0.20;0.20;;;8.00;99.90;;;;;;5105191;28;20198;-76
2023/12/23 03:38:55;;;;;;;0.33;0.33;;;8.10;99.90;;;;;;5101568;28;20186;-79
2023/12/23 03:41:21;;;;;;;0.30;0.30;;;8.00;99.90;;;;;;5096301;28;20174;-79
2023/12/23 03:43:47;;;;;;;0.30;0.30;;;8.10;99.90;;;;;;5077633;28;20625;-77
2023/12/23 03:46:13;;;;;;;0.20;0.20;;;8.00;99.90;;;;;;5096061;28;20185;-77
2023/12/23 03:48:38;;;;;;;1.03;0.30;;;8.00;99.90;;;;;;5096533;28;20210;-77
2023/12/23 03:51:04;;;;;;;0.20;0.20;;;8.10;99.90;;;;;;5096538;28;20174;-78
2023/12/23 03:53:30;;;;;;;0.20;0.20;;;8.10;99.90;;;;;;5095581;28;20172;-77
2023/12/23 03:55:56;;;;;;;0.20;0.20;;;8.00;99.90;;;;;;5098486;28;20637;-77
2023/12/23 03:58:21;;;;;;;0.47;0.40;;;8.00;99.90;;;;;;5098367;28;20474;-79
2023/12/23 04:00:47;;;;;;;0.23;0.23;;;7.90;99.90;;;;;;5096031;28;20246;-79
2023/12/23 04:03:13;;;;;;;0.23;0.23;;;8.00;99.90;;;;;;5095238;28;20201;-78
2023/12/23 04:05:39;;;;;;;0.40;0.40;;;8.00;99.90;;;;;;5077357;28;20207;-80
2023/12/23 04:08:05;;;;;;;0.30;0.30;;;8.00;99.90;;;;;;5096868;28;20221;-76
2023/12/23 04:10:32;;;;;;;0.20;0.20;;;8.00;99.90;;;;;;5096509;28;20172;-77
2023/12/23 04:12:59;;;;;;;0.20;0.20;;;8.20;99.90;;;;;;5097643;28;20182;-74
2023/12/23 04:15:25;;;;;;;0.20;0.20;;;8.10;99.90;;;;;;5077296;28;20685;-74
2023/12/23 04:17:53;;;;;;;0.30;0.30;;;8.20;99.90;;;;;;5095933;28;20324;-75
2023/12/23 04:20:19;;;;;;;0.20;0.20;;;8.10;99.90;;;;;;5090686;28;20189;-79
2023/12/23 04:22:47;;;;;;;0.30;0.30;;;8.10;99.90;;;;;;5082952;28;20193;-78
2023/12/23 04:25:14;;;;;;;0.13;0.13;;;8.20;99.90;;;;;;5097035;28;20521;-78
2023/12/23 04:27:40;;;;;;;0.20;0.20;;;8.30;99.90;;;;;;5078400;28;20202;-77
2023/12/23 04:30:06;;;;;;;0.20;0.20;;;8.20;99.90;;;;;;5095881;28;20194;-79
2023/12/23 04:32:32;;;;;;;0.20;0.20;;;8.20;99.90;;;;;;5095375;28;20530;-78
2023/12/23 04:34:59;;;;;;;0.20;0.20;;;8.10;99.90;;;;;;5095128;28;20552;-79
2023/12/23 04:37:25;;;;;;;0.10;0.10;;;7.90;99.90;;;;;;5095306;28;20537;-78
2023/12/23 04:39:51;;;;;;;0.30;0.30;;;8.30;99.90;;;;;;5094837;28;20208;-80
2023/12/23 04:42:16;;;;;;;0.10;0.10;;;8.20;99.90;;;;;;5095669;28;20661;-77
2023/12/23 04:44:42;;;;;;;0.13;0.13;;;8.20;99.90;;;;;;5096117;28;20170;-79
2023/12/23 04:47:08;;;;;;;0.20;0.20;;;8.10;99.90;;;;;;5094170;28;20187;-79
2023/12/23 04:49:34;;;;;;;0.20;0.20;;;8.20;99.90;;;;;;5094824;28;20848;-78
2023/12/23 04:52:00;;;;;;;0.10;0.10;;;8.20;99.90;;;;;;5097976;28;20219;-78
2023/12/23 04:54:26;;;;;;;0.20;0.20;;;8.10;99.90;;;;;;5100111;28;20179;-78
2023/12/23 04:56:51;;;;;;;0.30;0.30;;;8.20;99.90;;;;;;5113010;28;20291;-76
2023/12/23 04:59:17;;;;;;;0.20;0.20;;;8.20;99.90;;;;;;5111139;28;20179;-77
2023/12/23 05:01:44;;;;;;;0.20;0.20;;;8.40;99.90;;;;;;5099948;28;20708;-78
2023/12/23 05:04:09;;;;;;;0.40;0.40;;;8.30;99.90;;;;;;5096424;28;20182;-77
2023/12/23 05:06:35;;;;;;;0.20;0.20;;;8.30;99.90;;;;;;5095562;28;20191;-74
2023/12/23 05:09:02;;;;;;;0.30;0.30;;;8.30;99.90;;;;;;5105223;28;20296;-79
2023/12/23 05:11:28;;;;;;;0.27;0.27;;;8.20;99.90;;;;;;5078872;28;20184;-76
2023/12/23 05:13:54;;;;;;;0.43;0.43;;;8.10;99.90;;;;;;5096038;28;20166;-76
2023/12/23 05:16:19;;;;;;;0.30;0.30;;;8.20;99.90;;;;;;5094055;28;20225;-77
2023/12/23 05:18:45;;;;;;;0.23;0.23;;;8.20;99.90;;;;;;5067670;28;20539;-78
2023/12/23 05:21:11;;;;;;;0.23;0.23;;;8.20;99.90;;;;;;5037441;28;20180;-79
2023/12/23 05:23:37;;;;;;;0.20;0.20;;;8.30;99.90;;;;;;5053670;28;20932;-78
2023/12/23 05:26:03;;;;;;;0.20;0.20;;;8.30;99.90;;;;;;5053744;28;20663;-77
2023/12/23 05:28:28;;;;;;;0.20;0.20;;;8.10;99.90;;;;;;5053947;28;20227;-77
2023/12/23 05:30:54;;;;;;;0.30;0.30;;;8.20;99.90;;;;;;5054431;28;20249;-75
2023/12/23 05:33:29;;;;;;;0.10;0.10;;;7.90;99.90;;;;;;5055456;28;20172;-76
2023/12/23 05:35:55;;;;;;;0.20;0.20;;;8.10;99.90;;;;;;5077180;28;20173;-78
2023/12/23 05:38:20;;;;;;;0.20;0.20;;;8.10;99.90;;;;;;5058149;28;20179;-78
2023/12/23 05:40:46;;;;;;;0.30;0.30;;;8.20;99.90;;;;;;5055466;28;20184;-78
2023/12/23 05:43:12;;;;;;;0.27;0.27;;;8.20;99.90;;;;;;5072998;28;20198;-77
2023/12/23 05:45:38;;;;;;;0.30;0.30;;;8.10;99.90;;;;;;5073462;28;20723;-78
2023/12/23 05:48:04;;;;;;;0.20;0.20;;;8.00;99.90;;;;;;5076722;28;20213;-80
2023/12/23 05:50:30;;;;;;;0.40;0.40;;;8.10;99.90;;;;;;5074511;28;20181;-77
2023/12/23 05:52:56;;;;;;;0.40;0.40;;;8.00;99.90;;;;;;5073516;28;20175;-78
2023/12/23 05:55:21;;;;;;;0.30;0.30;;;7.90;99.90;;;;;;5056528;28;20314;-78
2023/12/23 05:57:47;;;;;;;0.20;0.20;;;8.10;99.90;;;;;;5074801;28;20198;-78
2023/12/23 06:00:13;;;;;;;0.20;0.20;;;7.90;99.90;;;;;;5070081;28;20268;-78
2023/12/23 06:02:39;;;;;;;0.40;0.20;;;7.90;99.90;;;;;;5054135;28;20180;-76
2023/12/23 06:05:05;;;;;;;0.20;0.20;;;7.90;99.90;;;;;;5053803;28;20240;-77
2023/12/23 06:07:31;;;;;;;0.40;0.40;;;7.80;99.90;;;;;;5035286;28;20236;-77
2023/12/23 06:09:57;;;;;;;0.50;0.50;;;7.90;99.90;;;;;;5035636;28;20183;-79
2023/12/23 06:12:23;;;;;;;1.00;1.00;;;7.80;99.90;;;;;;5053328;28;20619;-77
2023/12/23 06:14:50;;;;;;;0.67;0.67;;;7.70;99.90;;;;;;5063204;28;20271;-77
2023/12/23 06:17:16;;;;;;;1.40;1.40;;;7.60;99.90;;;;;;5053527;28;20183;-74
2023/12/23 06:19:42;;;;;;;1.33;1.23;;;7.70;99.90;;;;;;5059883;28;20178;-79
2023/12/23 06:22:07;;;;;;;0.60;0.60;;;7.30;99.90;;;;;;5060165;28;20631;-77
2023/12/23 06:24:33;;;;;;;0.80;0.80;;;7.40;99.90;;;;;;5053166;28;20229;-79
2023/12/23 06:26:59;;;;;;;1.00;1.00;;;7.40;99.90;;;;;;5052622;28;20174;-77
2023/12/23 06:29:25;;;;;;;1.30;1.30;;;7.40;99.90;;;;;;5053032;28;20222;-74
2023/12/23 06:31:50;;;;;;;0.90;0.90;;;7.30;99.90;;;;;;5052293;28;20172;-78
2023/12/23 06:34:16;;;;;;;0.80;0.80;;;7.30;99.90;;;;;;5034719;28;20273;-77
2023/12/23 06:36:42;;;;;;;0.80;0.80;;;7.10;99.90;;;;;;5063314;28;20200;-76
2023/12/23 06:39:07;;;;;;;1.40;1.30;;;7.10;99.90;;;;;;5053952;28;20596;-77
2023/12/23 06:41:33;;;;;;;1.00;1.00;;;7.10;99.90;;;;;;5052925;28;20233;-79
2023/12/23 06:43:59;;;;;;;0.73;0.73;;;7.20;99.90;;;;;;5052059;28;20298;-77
2023/12/23 06:46:24;;;;;;;0.70;0.70;;;7.20;99.90;;;;;;5052943;28;20176;-77
2023/12/23 06:48:52;;;;;;;0.40;0.40;;;7.20;99.90;;;;;;5051999;28;20260;-78
2023/12/23 06:51:17;;;;;;;0.50;0.50;;;7.10;99.90;;;;;;5051803;28;20171;-77
2023/12/23 06:53:43;;;;;;;2.03;0.70;;;7.00;99.90;;;;;;5048780;28;20182;-76
2023/12/23 06:56:10;;;;;;;0.70;0.70;;;7.00;99.90;;;;;;5066894;28;20202;-75
2023/12/23 06:58:36;;;;;;;0.93;0.73;;;7.10;99.90;;;;;;5054440;28;20326;-79
2023/12/23 07:01:02;;;;;;;0.60;0.60;;;7.10;99.90;;;;;;5052040;28;20694;-77
2023/12/23 07:03:28;;;;;;;0.73;0.73;;;7.20;99.90;;;;;;5018180;28;20204;-76
2023/12/23 07:05:53;;;;;;;1.70;1.10;;;7.10;99.90;;;;;;5062739;28;20159;-77
2023/12/23 07:08:19;;;;;;;1.30;1.30;;;7.10;99.90;;;;;;5068616;28;20245;-78
2023/12/23 07:10:45;;;;;;;1.00;0.90;;;7.10;99.90;;;;;;5063820;28;20230;-77
2023/12/23 07:13:10;;;;;;;1.17;1.17;;;7.10;99.90;;;;;;5063100;28;20183;-77
2023/12/23 07:15:36;;;;;;;1.17;1.10;;;7.10;99.90;;;;;;5067647;28;20180;-76
2023/12/23 07:18:02;;;;;;;1.30;1.30;;;7.00;99.90;;;;;;5039265;28;20263;-79
2023/12/23 07:20:28;;;;;;;1.30;1.30;;;7.00;99.90;;;;;;5058141;28;20172;-77
2023/12/23 07:22:53;;;;;;;1.40;1.40;;;7.00;99.90;;;;;;5063386;28;20558;-76
2023/12/23 07:25:19;;;;;;;2.00;1.60;;;6.90;99.90;;;;;;5050019;28;20180;-77
2023/12/23 07:27:45;;;;;;;1.53;1.53;;;6.90;99.90;;;;;;5058028;28;20214;-78
2023/12/23 07:30:11;;;;;;;1.50;1.40;;;7.10;99.90;;;;;;5056213;28;20171;-77
2023/12/23 07:32:37;;;;;;;1.90;1.80;;;7.20;99.90;;;;;;5057327;28;20233;-77
2023/12/23 07:35:03;;;;;;;2.40;2.20;;;7.00;99.90;;;;;;5051289;28;20190;-76
2023/12/23 07:37:29;;;;;;;6.53;5.90;;;6.90;99.90;;;;;;5063948;28;20176;-78
2023/12/23 07:39:56;;;;;;;2.30;2.20;;;6.80;99.90;;;;;;5064358;28;20800;-76
2023/12/23 07:42:22;;;;;;;2.30;2.20;;;6.70;99.90;;;;;;5039021;28;20250;-79
2023/12/23 07:44:48;;;;;;;1.60;1.53;;;6.80;99.90;;;;;;5057425;28;20183;-78
2023/12/23 07:47:14;;;;;;;1.87;1.77;;;6.80;99.90;;;;;;5055871;28;20183;-78
2023/12/23 07:49:39;;;;;;;1.60;1.50;;;6.80;99.90;;;;;;5056067;28;20189;-79
2023/12/23 07:52:07;;;;;;;1.63;1.33;;;6.90;99.90;;;;;;5043742;28;20245;-79
2023/12/23 07:54:33;;;;;;;1.40;1.40;;;6.90;99.90;;;;;;5057031;28;20174;-76
2023/12/23 07:56:59;;;;;;;1.93;1.83;;;6.90;99.90;;;;;;5055662;28;20178;-80
2023/12/23 07:59:25;;;;;;;1.40;1.40;;;6.90;99.90;;;;;;5056184;28;20564;-78
2023/12/23 08:01:51;;;;;;;1.53;1.50;;;6.80;99.90;;;;;;5055405;28;20251;-79
2023/12/23 08:04:16;;;;;;;1.30;1.30;;;6.90;99.90;;;;;;5055243;28;20661;-79
2023/12/23 08:06:43;;;;;;;1.80;1.70;;;7.00;99.90;;;;;;5037051;28;20725;-78
2023/12/23 08:09:08;;;;;;;1.53;1.53;;;6.90;99.90;;;;;;5054962;28;20305;-78
2023/12/23 08:11:37;;;;;;;4.00;1.40;;;6.90;99.90;;;;;;5037193;28;20273;-80
2023/12/23 08:14:03;;;;;;;1.80;1.70;;;6.90;99.90;;;;;;5036448;28;20191;-78
2023/12/23 08:16:30;;;;;;;1.40;1.40;;;6.70;99.90;;;;;;5055074;28;20206;-79
2023/12/23 08:18:55;;;;;;;1.03;1.03;;;6.70;99.90;;;;;;5039258;28;20182;-76
2023/12/23 08:21:21;;;;;;;1.07;1.07;;;6.80;99.90;;;;;;5068167;28;20236;-77
2023/12/23 08:23:47;;;;;;;1.20;1.20;;;7.00;99.90;;;;;;5056133;28;20187;-77
2023/12/23 08:26:13;;;;;;;1.50;1.27;;;6.90;99.90;;;;;;5056305;28;20646;-77
2023/12/23 08:28:39;;;;;;;0.83;0.83;;;7.00;99.90;;;;;;5038867;28;20214;-79
2023/12/23 08:31:05;;;;;;;1.67;1.20;;;7.10;99.90;;;;;;5056148;28;20182;-77
2023/12/23 08:33:33;;;;;;;1.40;1.40;;;7.10;99.90;;;;;;5058183;28;20177;-80
2023/12/23 08:35:58;;;;;;;1.33;1.33;;;7.20;99.90;;;;;;5037477;28;20195;-79
2023/12/23 08:38:24;;;;;;;1.50;1.40;;;7.30;99.90;;;;;;5054740;28;20570;-79
2023/12/23 08:40:50;;;;;;;1.80;1.70;;;7.30;99.90;;;;;;5056622;28;20225;-75
2023/12/23 08:43:16;;;;;;;1.70;1.60;;;7.40;99.90;;;;;;5072230;28;20219;-80
2023/12/23 08:45:42;;;;;;;1.50;1.33;;;7.50;99.90;;;;;;5054903;28;20572;-80
2023/12/23 08:48:08;;;;;;;1.13;1.13;;;7.50;99.90;;;;;;5054654;28;20257;-77
2023/12/23 08:50:34;;;;;;;1.30;1.30;;;7.70;99.90;;;;;;5055041;28;20175;-78
2023/12/23 08:53:00;;;;;;;1.07;1.07;;;7.70;99.90;;;;;;5069879;28;20182;-74
2023/12/23 08:55:25;;;;;;;1.60;1.50;;;7.80;99.90;;;;;;5061087;28;20631;-78
2023/12/23 08:57:51;;;;;;;1.60;1.60;;;8.00;99.90;;;;;;5054929;28;20267;-77
2023/12/23 09:00:18;;;;;;;1.60;1.60;;;7.80;99.90;;;;;;5040910;28;20234;-79
2023/12/23 09:02:43;;;;;;;1.27;1.27;;;7.90;99.90;;;;;;5074179;28;20189;-80
2023/12/23 09:05:09;;;;;;;1.40;1.40;;;8.10;99.90;;;;;;5073971;28;20175;-79
2023/12/23 09:07:36;;;;;;;1.10;1.10;;;8.10;99.90;;;;;;5073475;28;20223;-77
2023/12/23 09:10:04;;;;;;;1.93;1.83;;;8.20;99.90;;;;;;5073965;28;20254;-78
2023/12/23 09:12:30;;;;;;;1.43;1.33;;;8.30;99.90;;;;;;5072527;28;20190;-79
2023/12/23 09:14:56;;;;;;;0.93;0.93;;;8.30;99.90;;;;;;5075104;28;20188;-78
2023/12/23 09:17:22;;;;;;;0.90;0.90;;;8.30;99.90;;;;;;5073462;28;20231;-78
2023/12/23 09:19:47;;;;;;;1.00;1.00;;;8.50;99.90;;;;;;5073634;28;20203;-78
2023/12/23 09:22:13;;;;;;;0.97;0.97;;;8.50;99.90;;;;;;5073550;28;20179;-79
2023/12/23 09:24:41;;;;;;;1.20;1.20;;;8.60;99.90;;;;;;5080517;28;20181;-78
2023/12/23 09:27:07;;;;;;;0.90;0.90;;;8.60;99.90;;;;;;5084358;28;20182;-76
2023/12/23 09:29:32;;;;;;;1.00;1.00;;;8.60;99.90;;;;;;5079474;28;20178;-78
2023/12/23 09:31:58;;;;;;;0.87;0.87;;;8.70;99.90;;;;;;5098035;28;20592;-75
2023/12/23 09:34:24;;;;;;;2.63;1.07;;;8.70;99.90;;;;;;5087259;28;20222;-77
2023/12/23 09:36:50;;;;;;;1.00;1.00;;;8.70;99.90;;;;;;5082253;28;20218;-79
2023/12/23 09:39:15;;;;;;;0.97;0.97;;;8.80;99.90;;;;;;5082367;28;20625;-79
2023/12/23 09:41:41;;;;;;;0.90;0.90;;;8.80;99.90;;;;;;5085467;28;20250;-75
2023/12/23 09:44:07;;;;;;;1.30;1.20;;;8.90;99.90;;;;;;5079035;28;20160;-77
2023/12/23 09:46:35;;;;;;;1.30;1.20;;;9.20;99.90;;;;;;5091743;28;20177;-77
2023/12/23 09:49:01;;;;;;;1.60;1.60;;;9.40;99.90;;;;;;5085088;28;20237;-78
2023/12/23 09:51:27;;;;;;;2.03;1.93;;;9.40;99.90;;;;;;5075185;28;20208;-77
2023/12/23 09:53:58;;;;;;;2.63;2.43;;;9.40;99.90;;;;;;5055550;28;20178;-78
2023/12/23 09:56:27;;;;;;;2.70;2.20;;;9.30;99.90;;;;;;5073565;28;20231;-79
2023/12/23 09:58:53;;;;;;;3.10;2.70;;;9.40;99.90;;;;;;5072787;28;20183;-78
2023/12/23 10:01:19;;;;;;;3.43;2.90;;;9.30;99.90;;;;;;5060006;28;20241;-78
2023/12/23 10:03:46;;;;;;;2.83;2.63;;;9.50;99.90;;;;;;5052786;28;20535;-79
2023/12/23 10:06:15;;;;;;;3.50;3.30;;;9.50;99.90;;;;;;5052894;28;20575;-79
2023/12/23 10:08:45;;;;;;;3.30;3.10;;;9.80;99.90;;;;;;5053357;28;20218;-79
2023/12/23 10:11:10;;;;;;;3.60;3.30;;;9.60;99.90;;;;;;5067004;28;20179;-79
2023/12/23 10:13:36;;;;;;;3.30;3.07;;;9.60;99.90;;;;;;5053181;28;20594;-75
2023/12/23 10:16:03;;;;;;;3.00;2.80;;;9.70;99.90;;;;;;5053077;28;20185;-80
2023/12/23 10:18:30;;;;;;;2.83;2.60;;;9.70;99.90;;;;;;5053831;28;20237;-76
2023/12/23 10:20:57;;;;;;;4.07;3.20;;;9.80;99.90;;;;;;5065134;28;20181;-78
2023/12/23 10:23:23;;;;;;;3.20;3.00;;;9.70;99.90;;;;;;5024079;28;20183;-78
2023/12/23 10:25:51;;;;;;;3.33;3.13;;;9.80;99.90;;;;;;5033518;28;20179;-76
2023/12/23 10:28:21;;;;;;;3.17;2.87;;;9.80;99.90;;;;;;5055808;28;20207;-78
2023/12/23 10:30:49;;;;;;;4.10;3.70;;;9.80;99.90;;;;;;5065249;28;20174;-79
2023/12/23 10:33:17;;;;;;;4.77;2.70;;;9.70;99.90;;;;;;5068988;28;20261;-77
2023/12/23 10:35:47;;;;;;;3.07;2.83;;;9.70;99.90;;;;;;5058070;28;20203;-78
2023/12/23 10:38:22;;;;;;;2.97;2.77;;;9.60;99.90;;;;;;5035066;28;20604;-78
2023/12/23 10:41:13;;;;;;;2.20;2.10;;;9.40;99.90;;;;;;5052992;28;20158;-78
2023/12/23 10:43:40;;;;;;;2.23;2.13;;;9.60;99.90;;;;;;5053050;28;20756;-79
2023/12/23 10:46:07;;;;;;;2.10;2.00;;;9.60;99.90;;;;;;5055072;28;20585;-75
2023/12/23 10:48:36;;;;;;;2.23;2.13;;;9.70;99.90;;;;;;5060415;28;20248;-79
2023/12/23 10:51:03;;;;;;;3.10;2.90;;;9.70;99.90;;;;;;5058926;28;20552;-76
2023/12/23 10:53:30;;;;;;;1.97;1.77;;;9.80;99.90;;;;;;5063103;28;20187;-79
2023/12/23 10:55:56;;;;;;;2.63;2.43;;;9.70;99.90;;;;;;5067275;28;20215;-77
2023/12/23 10:58:22;;;;;;;2.07;1.97;;;9.50;99.90;;;;;;5063931;28;20173;-80
2023/12/23 11:00:49;;;;;;;2.83;2.50;;;9.50;99.90;;;;;;5065100;28;20223;-76
2023/12/23 11:03:15;;;;;;;2.20;2.10;;;9.60;99.90;;;;;;5058272;28;20188;-77
2023/12/23 11:05:43;;;;;;;2.03;1.93;;;9.50;99.90;;;;;;5057029;28;20250;-78
2023/12/23 11:08:15;;;;;;;2.30;2.20;;;9.80;99.90;;;;;;5039402;28;20213;-77
2023/12/23 11:10:42;;;;;;;4.20;3.80;;;9.90;99.90;;;;;;5039036;28;20210;-78
2023/12/23 11:13:09;;;;;;;4.00;3.70;;;9.80;99.90;;;;;;5056677;28;20199;-78
2023/12/23 11:15:38;;;;;;;4.70;3.87;;;9.80;99.90;;;;;;5056661;28;20210;-78
2023/12/23 11:18:04;;;;;;;3.60;3.30;;;9.80;99.90;;;;;;5055990;28;20210;-79
2023/12/23 11:20:35;;;;;;;3.03;2.83;;;9.80;99.90;;;;;;5055949;28;20210;-79
2023/12/23 11:23:30;;;;;;;2.67;2.57;;;9.70;99.90;;;;;;5056202;28;20197;-80
2023/12/23 11:25:56;;;;;;;2.57;2.47;;;9.80;99.90;;;;;;5056765;28;20187;-78
2023/12/23 11:28:28;;;;;;;2.80;2.60;;;9.80;99.90;;;;;;5070690;28;20252;-75
2023/12/23 11:30:59;;;;;;;2.30;2.20;;;9.70;99.90;;;;;;5070139;28;20155;-78
2023/12/23 11:33:32;;;;;;;2.23;2.13;;;9.70;99.90;;;;;;5047485;28;20227;-80
2023/12/23 11:35:59;;;;;;;2.20;2.10;;;9.50;99.90;;;;;;5036092;28;20179;-79
2023/12/23 11:38:47;;;;;;;2.60;2.50;;;9.40;99.90;;;;;;5052371;28;20271;-79
2023/12/23 11:41:13;;;;;;;2.83;2.63;;;9.40;99.90;;;;;;5038593;28;20179;-79
2023/12/23 11:43:44;;;;;;;2.53;2.43;;;9.30;99.90;;;;;;5055878;28;20182;-80
2023/12/23 11:46:10;;;;;;;2.33;2.23;;;9.40;99.90;;;;;;5055761;28;20180;-79
2023/12/23 11:48:36;;;;;;;2.47;2.30;;;9.40;99.90;;;;;;5055840;28;20921;-79
2023/12/23 11:51:02;;;;;;;3.60;3.30;;;9.60;99.90;;;;;;5055201;28;20229;-79
2023/12/23 11:53:29;;;;;;;3.03;2.63;;;9.70;99.90;;;;;;5055447;28;20215;-79
2023/12/23 11:55:55;;;;;;;2.20;2.03;;;9.80;99.90;;;;;;5036936;28;20190;-79
2023/12/23 11:58:22;;;;;;;2.20;2.10;;;9.90;99.90;;;;;;5053778;28;20172;-80
2023/12/23 12:00:52;;;;;;;2.13;2.03;;;9.90;99.90;;;;;;5055175;28;20234;-78
2023/12/23 12:03:18;;;;;;;2.63;2.13;;;9.90;99.90;;;;;;5055775;28;20174;-78
2023/12/23 12:05:44;;;;;;;2.50;2.40;;;9.70;99.90;;;;;;5060356;28;20175;-78
2023/12/23 12:08:10;;;;;;;3.37;2.70;;;9.70;99.90;;;;;;5056561;28;20214;-76
2023/12/23 12:10:36;;;;;;;2.97;2.77;;;9.80;99.90;;;;;;5057855;28;20175;-79
2023/12/23 12:13:02;;;;;;;2.38;2.28;;;9.90;99.90;;;;;;5068402;28;20414;-77
2023/12/23 12:15:28;;;;;;;2.83;2.63;;;9.90;99.90;;;;;;5063962;28;20561;-77
2023/12/23 12:17:56;;;;;;;2.30;2.10;;;9.90;99.90;;;;;;5064976;28;20175;-75
2023/12/23 12:20:22;;;;;;;2.30;2.20;;;9.80;99.90;;;;;;5072594;28;20175;-77
2023/12/23 12:22:49;;;;;;;2.97;2.70;;;9.80;99.90;;;;;;5069746;28;20175;-77
2023/12/23 12:25:15;;;;;;;2.93;2.57;;;9.80;99.90;;;;;;5066900;28;20177;-80
2023/12/23 12:27:42;;;;;;;3.53;2.80;;;9.70;99.90;;;;;;5056220;28;20218;-77
2023/12/23 12:30:12;;;;;;;2.90;2.70;;;9.30;99.90;;;;;;5056678;28;20182;-78
2023/12/23 12:32:44;;;;;;;6.27;3.50;;;9.30;99.90;;;;;;5056215;28;20183;-77
2023/12/23 12:35:12;;;;;;;3.30;2.93;;;9.70;99.90;;;;;;5055582;28;20168;-79
2023/12/23 12:37:41;;;;;;;4.30;3.03;;;9.40;99.90;;;;;;5055310;28;20278;-78
2023/12/23 12:40:11;;;;;;;3.20;3.00;;;9.50;99.90;;;;;;5054994;28;20180;-77
2023/12/23 12:42:37;;;;;;;3.07;2.87;;;9.50;99.90;;;;;;5055316;28;20533;-79
2023/12/23 12:45:03;;;;;;;3.20;3.00;;;9.40;99.90;;;;;;5051398;28;20195;-77
2023/12/23 12:47:29;;;;;;;4.33;3.70;;;9.40;99.90;;;;;;5054918;28;20173;-77
2023/12/23 12:50:01;;;;;;;3.10;2.90;;;9.50;99.90;;;;;;5066618;28;20222;-77
2023/12/23 12:52:28;;;;;;;3.27;2.97;;;9.60;99.90;;;;;;5067566;28;20224;-76
2023/12/23 12:54:58;;;;;;;4.93;3.63;;;9.20;99.90;;;;;;5059103;28;20191;-76
2023/12/23 12:57:25;;;;;;;6.30;3.13;;;9.50;99.90;;;;;;5055486;28;20248;-78
2023/12/23 12:59:50;;;;;;;3.17;2.97;;;9.60;99.90;;;;;;5054378;28;20215;-78